الصفحة الرئيسية
METAR-TAF:

METAR-TAF

مطار :

Faith Municipal Airport

Faith, داكوتا الجنوبية, الولايات المتحدة

دائرة عرض: 45-01-55N, خط طول: 102-01-09W, ارتفاع: 787 متر

مراقبة الطقس الحالي

تاريخ ووقت الإصدار 12 دقيقة قبل الساعة 06:56UTC
ريح 6 عقدة من الغرب
درجة الحرارة -2°درجة مئوية
الرطوبة 63%
ضغط 1014 hPa

METAR: KD07 110656Z AUTO 26006KT M02/M08 A2995 RMK AO1 SLP170 T10221083 400611100

زمن: 00:08 (07:08 UTC)


TAF: مفقودة

أرصاد الطقس والتوقعات من أكثر من 4000 مطار (تقارير الطقس للمطار METAR والتنبؤ بالطقس بالمطارTAF).

المحطات المتاحة هي النقط الصفراء والحمراء على الخريطة.

حرك المؤشر فوق النقطة لمعرفة اسم المحطة.

ثم انقر لمعرفة أرصاد وتوقعات الطقس.

لتغيير الخارطة: اضغط على الأزرار الخضراء مع رمز الصليب الأسود للتكبير. على الزر الأخضر مع شرطة للتصغير، أو على الأسهم الخضراء للخرائط المجاورة.


METAR-TAF: